createdAt,value
2018-05-16T00:00:09.018Z,77.10
2018-05-16T00:02:38.574Z,77.30
2018-05-16T00:05:07.668Z,77.50
2018-05-16T00:07:36.722Z,78.00
2018-05-16T00:10:04.992Z,77.80
2018-05-16T00:12:33.288Z,78.30
2018-05-16T00:15:01.524Z,78.40
2018-05-16T00:17:29.817Z,78.80
2018-05-16T00:19:58.076Z,78.80
2018-05-16T00:22:26.377Z,78.70
2018-05-16T00:24:54.676Z,78.80
2018-05-16T00:27:22.910Z,78.40
2018-05-16T00:29:51.218Z,78.10
2018-05-16T00:32:19.535Z,78.30
2018-05-16T00:34:48.597Z,78.40
2018-05-16T00:37:16.833Z,79.10
2018-05-16T00:39:45.137Z,79.20
2018-05-16T00:42:13.454Z,79.30
2018-05-16T00:44:41.765Z,79.40
2018-05-16T00:47:11.214Z,79.00
2018-05-16T00:49:40.357Z,78.80
2018-05-16T00:52:08.643Z,78.60
2018-05-16T00:54:36.955Z,78.60
2018-05-16T00:57:05.316Z,78.70
2018-05-16T00:59:33.619Z,78.50
2018-05-16T01:02:02.961Z,78.40
2018-05-16T01:04:31.253Z,78.30
2018-05-16T01:06:59.521Z,78.40
2018-05-16T01:09:28.938Z,79.00
2018-05-16T01:11:57.188Z,78.30
2018-05-16T01:14:25.490Z,78.10
2018-05-16T01:16:53.751Z,79.40
2018-05-16T01:19:22.779Z,79.40
2018-05-16T01:21:51.073Z,79.80
2018-05-16T01:24:20.109Z,79.70
2018-05-16T01:26:49.124Z,79.70
2018-05-16T01:29:17.409Z,79.90
2018-05-16T01:31:45.650Z,80.00
2018-05-16T01:34:13.964Z,80.00
2018-05-16T01:36:43.088Z,80.10
2018-05-16T01:39:11.377Z,80.00
2018-05-16T01:41:40.226Z,81.00
2018-05-16T01:44:08.528Z,80.30
2018-05-16T01:46:37.569Z,80.10
2018-05-16T01:49:17.707Z,80.10
2018-05-16T01:51:45.950Z,79.80
2018-05-16T01:54:15.019Z,80.70
2018-05-16T01:56:43.252Z,80.00
2018-05-16T01:59:15.257Z,80.30
2018-05-16T02:01:43.712Z,80.60
2018-05-16T02:04:12.011Z,80.40
2018-05-16T02:06:40.266Z,80.40
2018-05-16T02:09:08.541Z,80.40
2018-05-16T02:11:36.844Z,80.50
2018-05-16T02:14:05.961Z,80.40
2018-05-16T02:16:34.256Z,80.80
2018-05-16T02:19:03.726Z,81.10
2018-05-16T02:21:32.000Z,81.50
2018-05-16T02:24:00.273Z,82.30
2018-05-16T02:26:28.566Z,82.30
2018-05-16T02:28:56.833Z,82.90
2018-05-16T02:31:26.581Z,82.90
2018-05-16T02:33:54.845Z,82.90
2018-05-16T02:36:26.757Z,82.80
2018-05-16T02:38:55.127Z,83.00
2018-05-16T02:41:24.543Z,82.90
2018-05-16T02:43:52.921Z,82.50
2018-05-16T02:46:21.221Z,82.70
2018-05-16T02:48:49.489Z,83.40
2018-05-16T02:51:17.739Z,82.70
2018-05-16T02:53:46.923Z,82.80
2018-05-16T02:56:15.191Z,82.40
2018-05-16T02:58:43.462Z,82.50
2018-05-16T03:01:12.897Z,82.40
2018-05-16T03:03:41.994Z,82.20
2018-05-16T03:06:10.295Z,82.20
2018-05-16T03:08:38.576Z,82.30
2018-05-16T03:11:07.012Z,81.80
2018-05-16T03:13:35.953Z,82.20
2018-05-16T03:16:05.023Z,82.40
2018-05-16T03:18:34.220Z,81.60
2018-05-16T03:21:02.600Z,81.70
2018-05-16T03:23:30.870Z,81.90
2018-05-16T03:25:59.169Z,82.20
2018-05-16T03:28:28.237Z,82.80
2018-05-16T03:30:56.529Z,82.40
2018-05-16T03:33:24.801Z,82.60
2018-05-16T03:35:53.077Z,83.10
2018-05-16T03:38:21.348Z,83.30
2018-05-16T03:40:50.403Z,83.50
2018-05-16T03:43:18.666Z,83.30
2018-05-16T03:45:46.984Z,83.80
2018-05-16T03:48:15.265Z,84.30
2018-05-16T03:50:43.584Z,84.50
2018-05-16T03:53:13.688Z,85.30
2018-05-16T03:55:41.936Z,85.40
2018-05-16T03:58:22.879Z,86.70
2018-05-16T04:01:02.931Z,86.00
2018-05-16T04:03:43.164Z,86.10
2018-05-16T04:06:12.252Z,86.30
2018-05-16T04:08:41.308Z,87.40
2018-05-16T04:11:09.622Z,87.40
2018-05-16T04:13:38.690Z,87.30
2018-05-16T04:16:06.969Z,87.10
2018-05-16T04:18:35.337Z,87.20
2018-05-16T04:21:03.652Z,87.70
2018-05-16T04:23:32.712Z,88.50
2018-05-16T04:26:01.001Z,88.40
2018-05-16T04:28:29.341Z,88.20
2018-05-16T04:30:57.605Z,87.80
2018-05-16T04:33:26.796Z,87.00
2018-05-16T04:35:55.076Z,86.70
2018-05-16T04:38:24.647Z,86.20
2018-05-16T04:40:52.940Z,86.80
2018-05-16T04:43:21.960Z,87.10
2018-05-16T04:45:50.237Z,87.10
2018-05-16T04:48:18.483Z,86.90
2018-05-16T04:50:46.819Z,87.80
2018-05-16T04:53:15.219Z,86.70
2018-05-16T04:55:45.208Z,87.00
2018-05-16T04:58:13.508Z,86.90
2018-05-16T05:00:42.538Z,86.30
2018-05-16T05:03:10.856Z,86.20
2018-05-16T05:05:39.198Z,86.80
2018-05-16T05:08:07.477Z,85.80
2018-05-16T05:10:35.748Z,86.20
2018-05-16T05:13:04.065Z,85.60
2018-05-16T05:15:32.343Z,85.40
2018-05-16T05:18:00.657Z,85.90
2018-05-16T05:20:28.970Z,85.50
2018-05-16T05:22:57.277Z,85.40
2018-05-16T05:25:25.547Z,84.50
2018-05-16T05:27:53.899Z,83.90
2018-05-16T05:30:23.032Z,83.30
2018-05-16T05:32:51.263Z,83.00
2018-05-16T05:35:19.582Z,82.70
2018-05-16T05:37:47.873Z,81.90
2018-05-16T05:40:16.930Z,82.00
2018-05-16T05:42:45.946Z,81.70
2018-05-16T05:45:14.227Z,81.90
2018-05-16T05:47:42.502Z,82.40
2018-05-16T05:50:12.310Z,83.00
2018-05-16T05:52:41.711Z,83.00
2018-05-16T05:55:10.005Z,83.20
2018-05-16T05:57:38.280Z,82.10
2018-05-16T06:00:06.593Z,82.80
2018-05-16T06:02:35.590Z,83.60
2018-05-16T06:05:03.911Z,83.50
2018-05-16T06:07:32.173Z,84.10
2018-05-16T06:10:00.547Z,83.60
2018-05-16T06:12:30.654Z,82.90
2018-05-16T06:14:59.119Z,82.10
2018-05-16T06:17:27.361Z,81.20
2018-05-16T06:19:56.507Z,82.10
2018-05-16T06:22:24.729Z,82.10
2018-05-16T06:24:53.739Z,79.40
2018-05-16T06:27:22.248Z,79.50
2018-05-16T06:29:50.363Z,79.40
2018-05-16T06:32:18.695Z,79.70
2018-05-16T06:34:47.749Z,81.70
2018-05-16T06:37:16.053Z,80.00
2018-05-16T06:39:44.307Z,80.50
2018-05-16T06:42:13.378Z,81.40
2018-05-16T06:44:41.776Z,81.40
2018-05-16T06:47:10.038Z,80.80
2018-05-16T06:49:38.353Z,81.30
2018-05-16T06:52:06.645Z,81.00
2018-05-16T06:54:34.943Z,80.50
2018-05-16T06:57:03.243Z,75.50
2018-05-16T06:59:31.562Z,74.90
2018-05-16T07:01:59.809Z,75.10
2018-05-16T07:04:28.865Z,74.50
2018-05-16T07:06:57.269Z,74.50
2018-05-16T07:09:27.057Z,73.10
2018-05-16T07:11:55.323Z,73.10
2018-05-16T07:14:23.610Z,74.30
2018-05-16T07:16:51.921Z,72.10
2018-05-16T07:19:20.984Z,72.20
2018-05-16T07:21:50.282Z,72.10
2018-05-16T07:24:18.557Z,71.20
2018-05-16T07:26:46.800Z,69.10
2018-05-16T07:29:15.128Z,68.70
2018-05-16T07:31:43.401Z,66.90
2018-05-16T07:34:11.693Z,65.30
2018-05-16T07:36:40.768Z,67.10
2018-05-16T07:39:09.044Z,67.00
2018-05-16T07:41:37.339Z,65.80
2018-05-16T07:44:05.628Z,61.70
2018-05-16T07:46:33.945Z,55.00
2018-05-16T07:49:02.241Z,55.10
2018-05-16T07:51:30.499Z,56.80
2018-05-16T07:53:58.794Z,57.40
2018-05-16T07:56:27.083Z,58.00
2018-05-16T07:58:55.347Z,58.10
2018-05-16T08:01:23.649Z,59.40
2018-05-16T08:03:52.014Z,55.50
2018-05-16T08:06:20.377Z,55.50
2018-05-16T08:08:48.639Z,56.90
2018-05-16T08:11:16.919Z,55.80
2018-05-16T08:13:45.189Z,56.90
2018-05-16T08:16:14.359Z,56.00
2018-05-16T08:18:43.513Z,56.10
2018-05-16T08:21:11.775Z,56.10
2018-05-16T08:23:40.013Z,56.10
2018-05-16T08:26:11.100Z,56.00
2018-05-16T08:28:41.555Z,56.90
2018-05-16T08:31:10.577Z,56.00
2018-05-16T08:33:39.573Z,56.20
2018-05-16T08:36:08.631Z,56.70
2018-05-16T08:38:36.907Z,56.60
2018-05-16T08:41:05.184Z,56.40
2018-05-16T08:43:35.398Z,55.80
2018-05-16T08:46:03.688Z,55.80
2018-05-16T08:48:32.768Z,56.60
2018-05-16T08:51:01.419Z,56.60
2018-05-16T08:53:29.801Z,56.70
2018-05-16T08:55:57.970Z,57.40
2018-05-16T08:58:26.272Z,57.60
2018-05-16T09:00:55.318Z,58.00
2018-05-16T09:03:24.461Z,59.10
2018-05-16T09:05:52.741Z,59.10
2018-05-16T09:08:21.063Z,58.90
2018-05-16T09:10:50.068Z,59.10
2018-05-16T09:13:18.729Z,59.20
2018-05-16T09:15:47.816Z,58.70
2018-05-16T09:18:16.901Z,58.10
2018-05-16T09:20:45.155Z,58.10
2018-05-16T09:23:13.912Z,58.00
2018-05-16T09:25:42.192Z,58.40
2018-05-16T09:28:10.502Z,58.40
2018-05-16T09:30:38.781Z,59.00
2018-05-16T09:33:07.825Z,59.00
2018-05-16T09:35:36.720Z,59.10
2018-05-16T09:40:40.449Z,58.60
2018-05-16T09:43:08.978Z,58.50
2018-05-16T09:45:37.254Z,57.00
2018-05-16T09:48:05.502Z,57.60
2018-05-16T09:50:33.777Z,57.80
2018-05-16T09:53:02.841Z,58.00
2018-05-16T09:55:31.915Z,58.30
2018-05-16T09:58:00.941Z,57.40
2018-05-16T10:00:32.740Z,57.40
2018-05-16T10:03:01.008Z,57.20
2018-05-16T10:05:29.279Z,57.70
2018-05-16T10:07:57.572Z,57.00
2018-05-16T10:10:26.621Z,58.30
2018-05-16T10:12:55.170Z,58.30
2018-05-16T10:15:24.444Z,56.20
2018-05-16T10:17:52.677Z,56.10
2018-05-16T10:20:21.213Z,56.10
2018-05-16T10:22:49.481Z,56.20
2018-05-16T10:25:17.746Z,55.90
2018-05-16T10:27:45.986Z,55.00
2018-05-16T10:30:14.276Z,54.40
2018-05-16T10:32:42.583Z,52.30
2018-05-16T10:35:11.614Z,50.90
2018-05-16T10:37:39.942Z,47.40
2018-05-16T10:40:08.233Z,47.30
2018-05-16T10:42:37.275Z,47.00
2018-05-16T10:45:05.580Z,47.00
2018-05-16T10:47:34.677Z,45.40
2018-05-16T10:50:03.422Z,44.70
2018-05-16T10:52:32.487Z,44.10
2018-05-16T10:55:01.535Z,45.70
2018-05-16T10:57:29.851Z,45.50
2018-05-16T10:59:58.115Z,45.30
2018-05-16T11:02:26.400Z,44.90
2018-05-16T11:04:54.688Z,44.40
2018-05-16T11:07:23.721Z,45.40
2018-05-16T11:09:52.018Z,45.40
2018-05-16T11:12:20.328Z,44.80
2018-05-16T11:14:48.546Z,42.30
2018-05-16T11:17:16.849Z,44.20
2018-05-16T11:19:46.273Z,44.80
2018-05-16T11:22:14.569Z,45.90
2018-05-16T11:24:43.633Z,46.10
2018-05-16T11:27:12.715Z,46.20
2018-05-16T11:29:43.906Z,45.80
2018-05-16T11:32:12.127Z,46.50
2018-05-16T11:34:40.414Z,46.50
2018-05-16T11:37:08.684Z,45.50
2018-05-16T11:39:36.988Z,44.70
2018-05-16T11:42:05.257Z,44.90
2018-05-16T11:44:33.535Z,44.20
2018-05-16T11:47:01.779Z,45.10
2018-05-16T11:49:30.064Z,45.00
2018-05-16T11:51:59.252Z,44.60
2018-05-16T11:54:27.506Z,44.30
2018-05-16T11:56:55.834Z,44.20
2018-05-16T11:59:24.115Z,44.10
2018-05-16T12:01:53.805Z,41.40
2018-05-16T12:04:22.101Z,41.90
2018-05-16T12:06:51.617Z,42.50
2018-05-16T12:09:19.886Z,42.50
2018-05-16T12:11:48.250Z,42.60
2018-05-16T12:14:16.552Z,41.80
2018-05-16T12:16:46.502Z,43.00
2018-05-16T12:19:14.815Z,42.50
2018-05-16T12:21:43.184Z,42.40
2018-05-16T12:24:13.211Z,44.00
2018-05-16T12:26:41.519Z,44.00
2018-05-16T12:29:09.871Z,44.10
2018-05-16T12:31:38.059Z,45.50
2018-05-16T12:34:06.312Z,43.90
2018-05-16T12:36:34.613Z,44.60
2018-05-16T12:39:02.857Z,44.90
2018-05-16T12:44:06.696Z,46.70
2018-05-16T12:46:36.226Z,46.70
2018-05-16T12:49:05.279Z,45.80
2018-05-16T12:51:33.569Z,45.80
2018-05-16T12:54:01.868Z,44.80
2018-05-16T12:56:31.682Z,45.40
2018-05-16T12:59:00.765Z,44.90
2018-05-16T13:01:30.581Z,42.00
2018-05-16T13:03:59.630Z,42.00
2018-05-16T13:06:28.664Z,41.30
2018-05-16T13:08:56.937Z,41.00
2018-05-16T13:11:25.239Z,41.90
2018-05-16T13:13:54.293Z,42.20
2018-05-16T13:16:22.571Z,42.00
2018-05-16T13:18:51.671Z,40.00
2018-05-16T13:21:21.041Z,39.90
2018-05-16T13:23:49.237Z,40.70
2018-05-16T13:26:17.527Z,40.60
2018-05-16T13:28:50.031Z,41.30
2018-05-16T13:31:19.080Z,40.80
2018-05-16T13:33:47.348Z,40.70
2018-05-16T13:36:15.746Z,39.70
2018-05-16T13:38:44.712Z,39.60
2018-05-16T13:41:13.024Z,40.00
2018-05-16T13:43:41.262Z,40.60
2018-05-16T13:46:10.357Z,41.00
2018-05-16T13:48:38.593Z,42.00
2018-05-16T13:51:08.628Z,42.20
2018-05-16T13:53:37.691Z,42.80
2018-05-16T13:56:06.064Z,42.70
2018-05-16T13:58:34.299Z,42.60
2018-05-16T14:01:02.616Z,43.20
2018-05-16T14:03:30.973Z,43.30
2018-05-16T14:05:59.261Z,43.90
2018-05-16T14:08:27.571Z,44.00
2018-05-16T14:10:56.607Z,44.60
2018-05-16T14:13:26.589Z,43.80
2018-05-16T14:15:55.614Z,45.50
2018-05-16T14:18:23.862Z,45.50
2018-05-16T14:20:52.894Z,46.40
2018-05-16T14:23:21.203Z,46.30
2018-05-16T14:25:49.477Z,47.10
2018-05-16T14:28:17.714Z,47.50
2018-05-16T14:30:46.013Z,49.10
2018-05-16T14:33:14.338Z,49.00
2018-05-16T14:35:42.627Z,49.00
2018-05-16T14:38:10.924Z,49.50
2018-05-16T14:40:39.209Z,48.70
2018-05-16T14:43:07.497Z,48.30
2018-05-16T14:45:35.752Z,47.40
2018-05-16T14:48:04.027Z,47.90
2018-05-16T14:50:32.341Z,48.10
2018-05-16T14:53:02.091Z,50.20
2018-05-16T14:55:30.413Z,50.20
2018-05-16T14:57:58.698Z,50.40
2018-05-16T15:00:27.025Z,51.00
2018-05-16T15:02:55.292Z,51.10
2018-05-16T15:05:23.629Z,49.80
2018-05-16T15:07:51.919Z,48.80
2018-05-16T15:10:20.936Z,47.60
2018-05-16T15:12:50.045Z,47.60
2018-05-16T15:15:19.100Z,47.00
2018-05-16T15:17:48.158Z,46.40
2018-05-16T15:20:16.442Z,46.40
2018-05-16T15:22:45.120Z,47.00
2018-05-16T15:25:13.381Z,47.20
2018-05-16T15:27:42.645Z,47.80
2018-05-16T15:30:10.902Z,47.40
2018-05-16T15:32:39.988Z,48.40
2018-05-16T15:35:08.242Z,48.40
2018-05-16T15:37:36.545Z,48.70
2018-05-16T15:40:04.898Z,49.10
2018-05-16T15:42:33.140Z,49.00
2018-05-16T15:45:01.499Z,49.30
2018-05-16T15:47:30.509Z,50.40
2018-05-16T15:49:58.841Z,50.40
2018-05-16T15:52:27.106Z,50.50
2018-05-16T15:54:55.405Z,51.20
2018-05-16T15:57:24.693Z,51.70
2018-05-16T15:59:52.979Z,51.50
2018-05-16T16:02:21.247Z,52.50
2018-05-16T16:04:49.552Z,52.80
2018-05-16T16:07:19.866Z,52.70
2018-05-16T16:09:48.229Z,52.70
2018-05-16T16:12:16.529Z,53.00
2018-05-16T16:14:45.540Z,52.40
2018-05-16T16:17:13.836Z,52.40
2018-05-16T16:19:42.117Z,52.60
2018-05-16T16:22:10.349Z,52.40
2018-05-16T16:24:39.416Z,52.20
2018-05-16T16:27:07.690Z,52.20
2018-05-16T16:29:35.983Z,52.90
2018-05-16T16:32:04.364Z,53.40
2018-05-16T16:34:32.666Z,58.70
2018-05-16T16:37:01.004Z,70.20
2018-05-16T16:39:29.312Z,72.90
2018-05-16T16:41:58.364Z,77.80
2018-05-16T16:44:26.717Z,77.70
2018-05-16T16:46:55.033Z,79.50
2018-05-16T16:49:23.284Z,80.10
2018-05-16T16:51:51.565Z,80.80
2018-05-16T16:54:19.812Z,81.50
2018-05-16T16:56:48.148Z,81.70
2018-05-16T16:59:17.219Z,82.20
2018-05-16T17:01:45.487Z,82.10
2018-05-16T17:04:14.672Z,82.50
2018-05-16T17:06:43.483Z,83.10
2018-05-16T17:09:11.777Z,82.70
2018-05-16T17:11:40.098Z,83.00
2018-05-16T17:14:08.410Z,83.30
2018-05-16T17:16:37.426Z,83.90
2018-05-16T17:19:06.497Z,84.60
2018-05-16T17:21:34.776Z,84.60
2018-05-16T17:24:03.064Z,85.00
2018-05-16T17:26:31.371Z,85.10
2018-05-16T17:29:00.434Z,85.60
2018-05-16T17:31:28.717Z,85.60
2018-05-16T17:33:57.071Z,86.30
2018-05-16T17:36:25.369Z,86.60
2018-05-16T17:38:53.622Z,87.00
2018-05-16T17:41:22.865Z,87.40
2018-05-16T17:43:51.945Z,87.80
2018-05-16T17:46:20.302Z,87.70
2018-05-16T17:48:48.585Z,88.00
2018-05-16T17:51:16.913Z,88.10
2018-05-16T17:53:45.206Z,88.00
2018-05-16T17:56:14.258Z,88.30
2018-05-16T17:58:43.420Z,88.30
2018-05-16T18:01:11.706Z,88.30
2018-05-16T18:03:40.008Z,88.20
2018-05-16T18:06:09.083Z,88.00
2018-05-16T18:08:37.394Z,87.90
2018-05-16T18:11:06.442Z,88.20
2018-05-16T18:16:48.676Z,88.30
2018-05-16T18:19:17.236Z,89.20
2018-05-16T18:21:45.531Z,88.80
2018-05-16T18:24:13.809Z,89.10
2018-05-16T18:26:42.126Z,89.50
2018-05-16T18:29:10.474Z,89.70
2018-05-16T18:31:38.781Z,89.70
2018-05-16T18:34:07.829Z,89.50
2018-05-16T18:36:36.130Z,89.50
2018-05-16T18:39:05.174Z,90.20
2018-05-16T18:41:33.483Z,90.10
2018-05-16T18:44:01.780Z,90.10
2018-05-16T18:46:30.055Z,90.10
2018-05-16T18:48:58.369Z,90.30
2018-05-16T18:51:26.730Z,90.40
2018-05-16T18:53:55.088Z,90.50
2018-05-16T18:56:23.454Z,90.70
2018-05-16T18:58:51.727Z,90.90
2018-05-16T19:01:20.375Z,90.90
2018-05-16T19:03:48.809Z,91.20
2018-05-16T19:06:18.615Z,91.30
2018-05-16T19:08:46.988Z,91.30
2018-05-16T19:11:15.254Z,91.40
2018-05-16T19:13:43.607Z,91.40
2018-05-16T19:16:11.909Z,91.50
2018-05-16T19:18:40.592Z,91.40
2018-05-16T19:21:09.702Z,91.50
2018-05-16T19:23:37.965Z,91.50
2018-05-16T19:26:06.361Z,91.50
2018-05-16T19:28:36.321Z,91.90
2018-05-16T19:31:04.652Z,91.60
2018-05-16T19:33:32.985Z,91.70
2018-05-16T19:36:01.308Z,91.80
2018-05-16T19:38:30.370Z,91.90
2018-05-16T19:40:59.594Z,91.90
2018-05-16T19:43:27.879Z,91.90
2018-05-16T19:45:56.198Z,92.00
2018-05-16T19:48:24.464Z,92.20
2018-05-16T19:50:52.799Z,92.20
2018-05-16T19:53:21.088Z,92.20
2018-05-16T19:55:49.406Z,92.30
2018-05-16T19:58:17.681Z,92.40
2018-05-16T20:00:46.031Z,92.40
2018-05-16T20:03:16.702Z,92.40
2018-05-16T20:05:45.022Z,92.40
2018-05-16T20:08:13.355Z,92.50
2018-05-16T20:10:41.627Z,92.60
2018-05-16T20:13:09.961Z,92.50
2018-05-16T20:15:38.220Z,92.50
2018-05-16T20:18:06.557Z,92.70
2018-05-16T20:20:34.877Z,92.80
2018-05-16T20:23:03.207Z,92.70
2018-05-16T20:25:31.495Z,92.80
2018-05-16T20:27:59.826Z,92.60
2018-05-16T20:30:28.121Z,92.70
2018-05-16T20:32:56.444Z,92.60
2018-05-16T20:35:25.450Z,92.60
2018-05-16T20:37:54.634Z,92.80
2018-05-16T20:40:22.954Z,92.70
2018-05-16T20:42:52.023Z,92.60
2018-05-16T20:45:20.346Z,92.60
2018-05-16T20:47:48.885Z,92.70
2018-05-16T20:50:17.158Z,92.80
2018-05-16T20:52:45.474Z,93.00
2018-05-16T20:55:14.519Z,93.20
2018-05-16T20:57:42.776Z,93.20
2018-05-16T21:00:11.064Z,93.30
2018-05-16T21:02:39.356Z,93.50
2018-05-16T21:05:07.633Z,93.50
2018-05-16T21:07:35.944Z,93.60
2018-05-16T21:10:05.085Z,93.80
2018-05-16T21:12:34.003Z,93.80
2018-05-16T21:15:02.286Z,94.10
2018-05-16T21:17:30.556Z,94.20
2018-05-16T21:20:00.007Z,94.20
2018-05-16T21:22:28.363Z,94.20
2018-05-16T21:24:57.438Z,94.40
2018-05-16T21:27:25.777Z,94.40
2018-05-16T21:29:54.165Z,94.50
2018-05-16T21:32:22.455Z,94.50
2018-05-16T21:34:50.718Z,94.60
2018-05-16T21:37:19.833Z,94.50
2018-05-16T21:39:48.119Z,94.60
2018-05-16T21:42:17.184Z,94.90
2018-05-16T21:44:46.247Z,94.60
2018-05-16T21:47:14.487Z,94.80
2018-05-16T21:49:43.547Z,94.90
2018-05-16T21:52:11.847Z,94.90
2018-05-16T21:54:40.129Z,94.90
2018-05-16T21:57:09.166Z,95.20
2018-05-16T21:59:37.468Z,95.20
2018-05-16T22:02:05.939Z,95.20
2018-05-16T22:04:34.347Z,95.20
2018-05-16T22:07:02.748Z,95.20
2018-05-16T22:09:31.039Z,95.20
2018-05-16T22:12:00.093Z,95.20
2018-05-16T22:14:28.388Z,95.20
2018-05-16T22:16:57.443Z,95.40
2018-05-16T22:19:25.764Z,95.40
2018-05-16T22:21:54.037Z,95.40
2018-05-16T22:24:22.319Z,95.40
2018-05-16T22:26:50.655Z,95.50
2018-05-16T22:29:18.977Z,95.60
2018-05-16T22:31:53.828Z,95.70
2018-05-16T22:34:28.613Z,95.80
2018-05-16T22:37:03.337Z,95.80
2018-05-16T22:39:37.262Z,95.80
2018-05-16T22:42:11.237Z,95.80
2018-05-16T22:44:46.416Z,95.70
2018-05-16T22:47:14.675Z,96.10
2018-05-16T22:49:43.051Z,96.10
2018-05-16T22:52:11.333Z,96.30
2018-05-16T22:54:40.361Z,96.60
2018-05-16T22:57:08.662Z,96.90
2018-05-16T22:59:36.952Z,96.90
2018-05-16T23:02:05.213Z,97.00
2018-05-16T23:04:33.491Z,97.00
2018-05-16T23:07:01.747Z,97.10
2018-05-16T23:09:30.071Z,97.20
2018-05-16T23:11:58.369Z,97.50
2018-05-16T23:14:27.381Z,97.70
2018-05-16T23:16:55.656Z,97.60
2018-05-16T23:19:23.900Z,97.70
2018-05-16T23:21:52.211Z,97.90
2018-05-16T23:24:21.955Z,98.00
2018-05-16T23:26:50.250Z,98.00
2018-05-16T23:29:18.500Z,98.10
2018-05-16T23:31:46.788Z,98.00
2018-05-16T23:34:16.086Z,98.00
2018-05-16T23:36:44.346Z,98.00
2018-05-16T23:39:12.661Z,98.10
2018-05-16T23:41:40.936Z,98.30
2018-05-16T23:44:09.248Z,98.10
2018-05-16T23:46:38.268Z,98.50
2018-05-16T23:49:06.583Z,98.20
2018-05-16T23:51:34.967Z,98.00
2018-05-16T23:54:03.279Z,98.10
2018-05-16T23:56:31.574Z,97.90
2018-05-16T23:59:00.676Z,97.80
